Terminal Aerodrome Forecast
Issued by NWS

Home | Current Version | Previous Version | Text Only | Print | Product List | Glossary On
Versions: 1 2 3 4 5 6 7 8 9 10 11 12 13 14 15 16 17 18 19 20 21 22 23 24 25 26 27 28 29 30 31 32 33 34 35 36 37 38 39 40 41 42 43 44 45 46
000
FTAK31 PAFA 232010 AAB
TAFATA
TAF AMD
PATA 232010Z 2320/2418 09015G25KT 3/4SM -SN BR BKN018 OVC027
      TEMPO 2320/2322 2SM -SN OVC015
     FM240400 12010G18KT 3/4SM -SN BKN007 OVC015
     FM240900 15010KT 1SM -SN BR OVC015
     FM241200 20010KT 1SM -SN BR BKN010 OVC025
     FM241600 22012KT 5SM -SN BKN015 OVC035=

USA.gov is the U.S. government's official web portal to all federal, state and local government web resources and services.